CSN3768 ZLXN-ZBAA
Flight info
| Callsign | CSN3768 |
|---|---|
| Flight time | N/A |
| Altitude | 37100 |
| Route | UPV18D UPVOP DCT DNC DCT PABNI DCT TODAM DCT VIGEK DCT GUVBA GUVBA6J |
| Aircraft | B77W/H-SDE1E2E3FGHIJ2J3J4J5M1RWXY/LB1D1 |
Departure
| Time | 2026-04-30 07:46 |
|---|---|
| Airport | Xining Caojiabao International Airport (ZLXN) |
Arrival
| Time | N/A |
|---|---|
| Airport | Beijing Capital International Airport (ZBAA) |
| Time | Latitude | Longitude | Altitude | Speed | Heading |
|---|---|---|---|---|---|
| 2026-04-30 07:34 | 36.52622 | 102.04215 | 7139 ft | 0 kts | 250° |
| 2026-04-30 07:35 | 36.52625 | 102.04224 | 7139 ft | 3 kts | 250° |
| 2026-04-30 07:36 | 36.52631 | 102.04246 | 7128 ft | 3 kts | 250° |
| 2026-04-30 07:36 | 36.52638 | 102.04268 | 7132 ft | 3 kts | 250° |
| 2026-04-30 07:36 | 36.52644 | 102.04290 | 7131 ft | 3 kts | 250° |
| 2026-04-30 07:36 | 36.52650 | 102.04313 | 7127 ft | 3 kts | 258° |
| 2026-04-30 07:37 | 36.52654 | 102.04336 | 7129 ft | 3 kts | 263° |
| 2026-04-30 07:37 | 36.52654 | 102.04360 | 7129 ft | 3 kts | 280° |
| 2026-04-30 07:37 | 36.52653 | 102.04370 | 7130 ft | 0 kts | 289° |
| 2026-04-30 07:40 | 36.52660 | 102.04346 | 7136 ft | 11 kts | 289° |
| 2026-04-30 07:40 | 36.52686 | 102.04252 | 7132 ft | 12 kts | 289° |
| 2026-04-30 07:40 | 36.52718 | 102.04142 | 7131 ft | 20 kts | 287° |
| 2026-04-30 07:40 | 36.52791 | 102.03984 | 7131 ft | 12 kts | 341° |
| 2026-04-30 07:41 | 36.52813 | 102.03993 | 7129 ft | 4 kts | 31° |
| 2026-04-30 07:41 | 36.52820 | 102.04075 | 7126 ft | 15 kts | 104° |
| 2026-04-30 07:41 | 36.52776 | 102.04250 | 7125 ft | 27 kts | 112° |
| 2026-04-30 07:41 | 36.52721 | 102.04439 | 7128 ft | 21 kts | 109° |
| 2026-04-30 07:42 | 36.52673 | 102.04613 | 7130 ft | 21 kts | 108° |
| 2026-04-30 07:42 | 36.52642 | 102.04730 | 7136 ft | 21 kts | 108° |
| 2026-04-30 07:42 | 36.52581 | 102.04960 | 7132 ft | 21 kts | 111° |
| 2026-04-30 07:42 | 36.52543 | 102.05084 | 7130 ft | 26 kts | 111° |
| 2026-04-30 07:43 | 36.52472 | 102.05338 | 7127 ft | 37 kts | 108° |
| 2026-04-30 07:43 | 36.52390 | 102.05632 | 7131 ft | 17 kts | 110° |
| 2026-04-30 07:43 | 36.52350 | 102.05772 | 7137 ft | 17 kts | 109° |
| 2026-04-30 07:43 | 36.52354 | 102.05882 | 7134 ft | 6 kts | 41° |
| 2026-04-30 07:44 | 36.52406 | 102.05915 | 7130 ft | 15 kts | 23° |
| 2026-04-30 07:44 | 36.52484 | 102.05930 | 7137 ft | 8 kts | 315° |
| 2026-04-30 07:44 | 36.52503 | 102.05861 | 7137 ft | 0 kts | 288° |
| 2026-04-30 07:45 | 36.52507 | 102.05848 | 7130 ft | 7 kts | 288° |
| 2026-04-30 07:45 | 36.52550 | 102.05685 | 7132 ft | 37 kts | 288° |
| 2026-04-30 07:46 | 36.52718 | 102.05075 | 7132 ft | 111 kts | 289° |
| 2026-04-30 07:46 | 36.53046 | 102.03889 | 7131 ft | 177 kts | 289° |
| 2026-04-30 07:46 | 36.53520 | 102.02254 | 7229 ft | 216 kts | 291° |
| 2026-04-30 07:46 | 36.54023 | 102.00492 | 7748 ft | 219 kts | 289° |
| 2026-04-30 07:47 | 36.54501 | 101.98639 | 8196 ft | 225 kts | 288° |
| 2026-04-30 07:47 | 36.54975 | 101.96799 | 8799 ft | 222 kts | 289° |
| 2026-04-30 07:47 | 36.55473 | 101.94939 | 9081 ft | 238 kts | 288° |
| 2026-04-30 07:47 | 36.56003 | 101.92929 | 9390 ft | 252 kts | 288° |
| 2026-04-30 07:48 | 36.56584 | 101.90762 | 9678 ft | 272 kts | 289° |
| 2026-04-30 07:48 | 36.57163 | 101.88482 | 10213 ft | 282 kts | 282° |
| 2026-04-30 07:48 | 36.57084 | 101.85986 | 10401 ft | 304 kts | 248° |
| 2026-04-30 07:48 | 36.55891 | 101.83806 | 10762 ft | 316 kts | 216° |
| 2026-04-30 07:49 | 36.53880 | 101.82563 | 11036 ft | 332 kts | 187° |
| 2026-04-30 07:49 | 36.51516 | 101.82478 | 11355 ft | 351 kts | 169° |
| 2026-04-30 07:49 | 36.49119 | 101.83278 | 11615 ft | 369 kts | 155° |
| 2026-04-30 07:49 | 36.46889 | 101.84841 | 12289 ft | 371 kts | 136° |
| 2026-04-30 07:50 | 36.45264 | 101.87308 | 13237 ft | 364 kts | 123° |
| 2026-04-30 07:50 | 36.43871 | 101.89936 | 14105 ft | 365 kts | 124° |
| 2026-04-30 07:50 | 36.42403 | 101.92538 | 14879 ft | 369 kts | 126° |
| 2026-04-30 07:50 | 36.40868 | 101.95109 | 15332 ft | 384 kts | 128° |
| 2026-04-30 07:51 | 36.39254 | 101.97812 | 15932 ft | 394 kts | 127° |
| 2026-04-30 07:51 | 36.37552 | 102.00501 | 16611 ft | 399 kts | 132° |
| 2026-04-30 07:51 | 36.35717 | 102.03144 | 17300 ft | 407 kts | 133° |
| 2026-04-30 07:51 | 36.33863 | 102.05862 | 17958 ft | 415 kts | 132° |
| 2026-04-30 07:52 | 36.32202 | 102.08826 | 18254 ft | 422 kts | 119° |
| 2026-04-30 07:52 | 36.31281 | 102.12255 | 18670 ft | 435 kts | 97° |
| 2026-04-30 07:52 | 36.31490 | 102.16064 | 19148 ft | 449 kts | 75° |
| 2026-04-30 07:52 | 36.32623 | 102.19639 | 19630 ft | 451 kts | 67° |
| 2026-04-30 07:53 | 36.33848 | 102.23259 | 20130 ft | 461 kts | 68° |
| 2026-04-30 07:53 | 36.35021 | 102.26978 | 20840 ft | 462 kts | 69° |
| 2026-04-30 07:53 | 36.36141 | 102.30736 | 21461 ft | 467 kts | 70° |
| 2026-04-30 07:53 | 36.37233 | 102.34532 | 21945 ft | 475 kts | 70° |
| 2026-04-30 07:54 | 36.38340 | 102.38450 | 22472 ft | 481 kts | 71° |
| 2026-04-30 07:54 | 36.39455 | 102.42417 | 22991 ft | 487 kts | 70° |
| 2026-04-30 07:54 | 36.40563 | 102.46359 | 23468 ft | 493 kts | 70° |
| 2026-04-30 07:54 | 36.41704 | 102.50407 | 23860 ft | 499 kts | 70° |
| 2026-04-30 07:55 | 36.42861 | 102.54505 | 24247 ft | 504 kts | 70° |
| 2026-04-30 07:55 | 36.44027 | 102.58635 | 24787 ft | 505 kts | 70° |
| 2026-04-30 07:55 | 36.45124 | 102.62763 | 25267 ft | 506 kts | 76° |
| 2026-04-30 07:55 | 36.45548 | 102.67075 | 25585 ft | 511 kts | 94° |
| 2026-04-30 07:56 | 36.45036 | 102.71465 | 25975 ft | 510 kts | 103° |
| 2026-04-30 07:56 | 36.44356 | 102.75777 | 26355 ft | 515 kts | 102° |
| 2026-04-30 07:56 | 36.43728 | 102.80176 | 26735 ft | 520 kts | 101° |
| 2026-04-30 07:56 | 36.43165 | 102.84619 | 27186 ft | 523 kts | 100° |
| 2026-04-30 07:57 | 36.42624 | 102.89103 | 27654 ft | 525 kts | 100° |
| 2026-04-30 07:57 | 36.42084 | 102.93593 | 28058 ft | 529 kts | 99° |
| 2026-04-30 07:57 | 36.41755 | 102.98180 | 28408 ft | 534 kts | 92° |
| 2026-04-30 07:57 | 36.41892 | 103.02817 | 28747 ft | 539 kts | 84° |
| 2026-04-30 07:58 | 36.42469 | 103.07359 | 29093 ft | 541 kts | 76° |
| 2026-04-30 07:58 | 36.43435 | 103.11889 | 29491 ft | 542 kts | 73° |
| 2026-04-30 07:58 | 36.44463 | 103.16382 | 29990 ft | 541 kts | 72° |
| 2026-04-30 07:58 | 36.45491 | 103.20905 | 30384 ft | 542 kts | 73° |
| 2026-04-30 07:59 | 36.46486 | 103.25428 | 30721 ft | 543 kts | 73° |
| 2026-04-30 07:59 | 36.47453 | 103.29974 | 31121 ft | 543 kts | 73° |
| 2026-04-30 07:59 | 36.48399 | 103.34522 | 31536 ft | 543 kts | 74° |
| 2026-04-30 08:00 | 36.50272 | 103.43628 | 32261 ft | 544 kts | 74° |
| 2026-04-30 08:00 | 36.51202 | 103.48143 | 32633 ft | 545 kts | 74° |
| 2026-04-30 08:00 | 36.52143 | 103.52704 | 33000 ft | 545 kts | 74° |
| 2026-04-30 08:00 | 36.53086 | 103.57279 | 33351 ft | 545 kts | 74° |
| 2026-04-30 08:01 | 36.54119 | 103.61836 | 33690 ft | 545 kts | 70° |
| 2026-04-30 08:01 | 36.55429 | 103.66202 | 33996 ft | 543 kts | 63° |
| 2026-04-30 08:01 | 36.56963 | 103.70516 | 34278 ft | 543 kts | 62° |
| 2026-04-30 08:01 | 36.58524 | 103.74795 | 34651 ft | 541 kts | 62° |
| 2026-04-30 08:02 | 36.61615 | 103.83255 | 35381 ft | 537 kts | 62° |
| 2026-04-30 08:02 | 36.63154 | 103.87522 | 35739 ft | 536 kts | 62° |
| 2026-04-30 08:03 | 36.66181 | 103.96022 | 35942 ft | 542 kts | 62° |
| 2026-04-30 08:03 | 36.69209 | 104.04612 | 36017 ft | 538 kts | 62° |
| 2026-04-30 08:04 | 36.72201 | 104.13129 | 36002 ft | 534 kts | 62° |
| 2026-04-30 08:04 | 36.75174 | 104.21593 | 35999 ft | 533 kts | 62° |
| 2026-04-30 08:05 | 36.78138 | 104.30054 | 35997 ft | 533 kts | 62° |
| 2026-04-30 08:05 | 36.81091 | 104.38506 | 35994 ft | 534 kts | 62° |
| 2026-04-30 08:06 | 36.84050 | 104.47003 | 35988 ft | 535 kts | 62° |
| 2026-04-30 08:06 | 36.87011 | 104.55530 | 35983 ft | 536 kts | 61° |
| 2026-04-30 08:07 | 36.89987 | 104.64120 | 35977 ft | 537 kts | 61° |
| 2026-04-30 08:07 | 36.92942 | 104.72676 | 35973 ft | 538 kts | 61° |
| 2026-04-30 08:08 | 36.95898 | 104.81259 | 35972 ft | 538 kts | 61° |
| 2026-04-30 08:08 | 36.98848 | 104.89849 | 35964 ft | 538 kts | 61° |
| 2026-04-30 08:09 | 37.01782 | 104.98424 | 35968 ft | 538 kts | 61° |
| 2026-04-30 08:09 | 37.04735 | 105.07073 | 35942 ft | 538 kts | 61° |
| 2026-04-30 08:10 | 37.07657 | 105.15659 | 35937 ft | 537 kts | 61° |
| 2026-04-30 08:10 | 37.10577 | 105.24259 | 35934 ft | 536 kts | 60° |
| 2026-04-30 08:11 | 37.13481 | 105.32843 | 35914 ft | 535 kts | 60° |
| 2026-04-30 08:11 | 37.16371 | 105.41407 | 35912 ft | 534 kts | 60° |
| 2026-04-30 08:12 | 37.19265 | 105.50008 | 35897 ft | 534 kts | 60° |
| 2026-04-30 08:12 | 37.22132 | 105.58553 | 35885 ft | 533 kts | 60° |
| 2026-04-30 08:13 | 37.25016 | 105.67177 | 35877 ft | 532 kts | 60° |
| 2026-04-30 08:13 | 37.27858 | 105.75693 | 35873 ft | 532 kts | 60° |
| 2026-04-30 08:14 | 37.30715 | 105.84281 | 35869 ft | 532 kts | 60° |
| 2026-04-30 08:14 | 37.33560 | 105.92860 | 35867 ft | 533 kts | 60° |
| 2026-04-30 08:15 | 37.36406 | 106.01468 | 35867 ft | 533 kts | 60° |
| 2026-04-30 08:15 | 37.39237 | 106.10057 | 35864 ft | 533 kts | 60° |
| 2026-04-30 08:16 | 37.42069 | 106.18675 | 35870 ft | 533 kts | 60° |
| 2026-04-30 08:16 | 37.44898 | 106.27309 | 35871 ft | 533 kts | 60° |
| 2026-04-30 08:17 | 37.47714 | 106.35925 | 35870 ft | 532 kts | 60° |
| 2026-04-30 08:17 | 37.50526 | 106.44558 | 35874 ft | 531 kts | 60° |
| 2026-04-30 08:18 | 37.53325 | 106.53178 | 35872 ft | 530 kts | 60° |
| 2026-04-30 08:18 | 37.56094 | 106.61729 | 35879 ft | 529 kts | 60° |
| 2026-04-30 08:19 | 37.58866 | 106.70314 | 35888 ft | 529 kts | 60° |
| 2026-04-30 08:19 | 37.61635 | 106.78913 | 35899 ft | 528 kts | 60° |
| 2026-04-30 08:20 | 37.64394 | 106.87509 | 35902 ft | 529 kts | 60° |
| 2026-04-30 08:20 | 37.67137 | 106.96082 | 35908 ft | 529 kts | 60° |
| 2026-04-30 08:21 | 37.69890 | 107.04711 | 35917 ft | 529 kts | 60° |
| 2026-04-30 08:21 | 37.72626 | 107.13315 | 35919 ft | 529 kts | 60° |
| 2026-04-30 08:22 | 37.75369 | 107.21967 | 35916 ft | 529 kts | 60° |
| 2026-04-30 08:22 | 37.78087 | 107.30568 | 35925 ft | 529 kts | 60° |
| 2026-04-30 08:23 | 37.80804 | 107.39189 | 35912 ft | 528 kts | 60° |
| 2026-04-30 08:23 | 37.83521 | 107.47834 | 35936 ft | 527 kts | 60° |
| 2026-04-30 08:24 | 37.86215 | 107.56435 | 35909 ft | 527 kts | 60° |
| 2026-04-30 08:24 | 37.88918 | 107.65089 | 35923 ft | 526 kts | 60° |
| 2026-04-30 08:25 | 37.91598 | 107.73698 | 35922 ft | 526 kts | 60° |
| 2026-04-30 08:25 | 37.94270 | 107.82306 | 35920 ft | 526 kts | 60° |
| 2026-04-30 08:26 | 37.96942 | 107.90943 | 35922 ft | 525 kts | 60° |
| 2026-04-30 08:26 | 37.99599 | 107.99558 | 35919 ft | 525 kts | 60° |
| 2026-04-30 08:27 | 38.02253 | 108.08188 | 35920 ft | 525 kts | 60° |
| 2026-04-30 08:27 | 38.04885 | 108.16772 | 35923 ft | 525 kts | 60° |
| 2026-04-30 08:28 | 38.07536 | 108.25446 | 35923 ft | 525 kts | 60° |
| 2026-04-30 08:28 | 38.10173 | 108.34104 | 35930 ft | 525 kts | 61° |
| 2026-04-30 08:29 | 38.12789 | 108.42717 | 35929 ft | 525 kts | 61° |
| 2026-04-30 08:29 | 38.15403 | 108.51353 | 35932 ft | 524 kts | 61° |
| 2026-04-30 08:30 | 38.18010 | 108.59992 | 35927 ft | 524 kts | 61° |
| 2026-04-30 08:30 | 38.20614 | 108.68648 | 35919 ft | 523 kts | 61° |
| 2026-04-30 08:31 | 38.23210 | 108.77304 | 35925 ft | 523 kts | 61° |
| 2026-04-30 08:31 | 38.25793 | 108.85944 | 35934 ft | 522 kts | 61° |
| 2026-04-30 08:32 | 38.27942 | 108.93151 | 35939 ft | 522 kts | 61° |
| 2026-04-30 08:32 | 38.30502 | 109.01766 | 35947 ft | 522 kts | 61° |
| 2026-04-30 08:33 | 38.33072 | 109.10440 | 35946 ft | 522 kts | 61° |
| 2026-04-30 08:33 | 38.35626 | 109.19091 | 35955 ft | 522 kts | 61° |
| 2026-04-30 08:34 | 38.38185 | 109.27769 | 35960 ft | 521 kts | 60° |
| 2026-04-30 08:34 | 38.41198 | 109.36067 | 35969 ft | 513 kts | 54° |
| 2026-04-30 08:35 | 38.44440 | 109.44084 | 35970 ft | 512 kts | 53° |
| 2026-04-30 08:35 | 38.47699 | 109.52159 | 35972 ft | 512 kts | 53° |
| 2026-04-30 08:36 | 38.50924 | 109.60272 | 35973 ft | 512 kts | 54° |
| 2026-04-30 08:36 | 38.54126 | 109.68400 | 35985 ft | 512 kts | 54° |
| 2026-04-30 08:37 | 38.57299 | 109.76480 | 35983 ft | 511 kts | 54° |
| 2026-04-30 08:37 | 38.60505 | 109.84662 | 35985 ft | 511 kts | 54° |
| 2026-04-30 08:38 | 38.63658 | 109.92725 | 35981 ft | 511 kts | 54° |
| 2026-04-30 08:38 | 38.66828 | 110.00852 | 35992 ft | 510 kts | 54° |
| 2026-04-30 08:39 | 38.69990 | 110.08978 | 35991 ft | 509 kts | 54° |
| 2026-04-30 08:39 | 38.73149 | 110.17119 | 36002 ft | 509 kts | 54° |
| 2026-04-30 08:40 | 38.76293 | 110.25244 | 35994 ft | 509 kts | 54° |
| 2026-04-30 08:40 | 38.79429 | 110.33369 | 36011 ft | 508 kts | 54° |
| 2026-04-30 08:41 | 38.82536 | 110.41445 | 36011 ft | 508 kts | 54° |
| 2026-04-30 08:41 | 38.85663 | 110.49586 | 36009 ft | 508 kts | 54° |
| 2026-04-30 08:42 | 38.88779 | 110.57729 | 36016 ft | 512 kts | 54° |
| 2026-04-30 08:42 | 38.91913 | 110.65937 | 36025 ft | 509 kts | 54° |
| 2026-04-30 08:43 | 38.95002 | 110.74062 | 36017 ft | 505 kts | 55° |
| 2026-04-30 08:43 | 38.98060 | 110.82116 | 35996 ft | 502 kts | 55° |
| 2026-04-30 08:44 | 39.01117 | 110.90178 | 36029 ft | 502 kts | 55° |
| 2026-04-30 08:44 | 39.04177 | 110.98273 | 36036 ft | 503 kts | 55° |
| 2026-04-30 08:45 | 39.07242 | 111.06403 | 36023 ft | 506 kts | 55° |
| 2026-04-30 08:46 | 39.13309 | 111.22573 | 36043 ft | 509 kts | 56° |
| 2026-04-30 08:46 | 39.16374 | 111.30784 | 36051 ft | 509 kts | 56° |
| 2026-04-30 08:47 | 39.19420 | 111.38967 | 36037 ft | 504 kts | 56° |
| 2026-04-30 08:47 | 39.22445 | 111.47112 | 36052 ft | 502 kts | 56° |
| 2026-04-30 08:48 | 39.25461 | 111.55243 | 36065 ft | 503 kts | 56° |
| 2026-04-30 08:48 | 39.28476 | 111.63392 | 36069 ft | 505 kts | 56° |
| 2026-04-30 08:49 | 39.31503 | 111.71607 | 36082 ft | 506 kts | 56° |
| 2026-04-30 08:49 | 39.34505 | 111.79780 | 36082 ft | 505 kts | 56° |
| 2026-04-30 08:50 | 39.37503 | 111.87965 | 36089 ft | 503 kts | 57° |
| 2026-04-30 08:50 | 39.40483 | 111.96118 | 36102 ft | 501 kts | 57° |
| 2026-04-30 08:51 | 39.43456 | 112.04274 | 36094 ft | 500 kts | 57° |
| 2026-04-30 08:51 | 39.46416 | 112.12414 | 36098 ft | 499 kts | 57° |
| 2026-04-30 08:52 | 39.52057 | 112.29462 | 36081 ft | 503 kts | 62° |
| 2026-04-30 08:53 | 39.54516 | 112.37941 | 36078 ft | 502 kts | 62° |
| 2026-04-30 08:53 | 39.56974 | 112.46400 | 36052 ft | 497 kts | 62° |
| 2026-04-30 08:53 | 39.58192 | 112.50570 | 35874 ft | 493 kts | 62° |
| 2026-04-30 08:54 | 39.59408 | 112.54719 | 35600 ft | 493 kts | 62° |
| 2026-04-30 08:54 | 39.60636 | 112.58894 | 35353 ft | 497 kts | 62° |
| 2026-04-30 08:54 | 39.61873 | 112.63104 | 35354 ft | 499 kts | 62° |
| 2026-04-30 08:54 | 39.63087 | 112.67268 | 35073 ft | 491 kts | 62° |
| 2026-04-30 08:55 | 39.64301 | 112.71433 | 34626 ft | 495 kts | 62° |
| 2026-04-30 08:55 | 39.65514 | 112.75596 | 34366 ft | 494 kts | 62° |
| 2026-04-30 08:55 | 39.66734 | 112.79789 | 34079 ft | 494 kts | 62° |
| 2026-04-30 08:55 | 39.67534 | 112.82545 | 33873 ft | 494 kts | 62° |
| 2026-04-30 08:56 | 39.69143 | 112.88091 | 33394 ft | 494 kts | 62° |
| 2026-04-30 08:56 | 39.70352 | 112.92268 | 32996 ft | 495 kts | 63° |
| 2026-04-30 08:56 | 39.71552 | 112.96420 | 32601 ft | 495 kts | 63° |
| 2026-04-30 08:56 | 39.72767 | 113.00630 | 32217 ft | 496 kts | 64° |
| 2026-04-30 08:57 | 39.73978 | 113.04838 | 31937 ft | 497 kts | 64° |
| 2026-04-30 08:57 | 39.76398 | 113.13264 | 31938 ft | 497 kts | 64° |
| 2026-04-30 08:58 | 39.78808 | 113.21687 | 31928 ft | 497 kts | 64° |
| 2026-04-30 08:58 | 39.81204 | 113.30084 | 31928 ft | 497 kts | 65° |
| 2026-04-30 08:59 | 39.83610 | 113.38542 | 31932 ft | 496 kts | 65° |
| 2026-04-30 08:59 | 39.85997 | 113.46960 | 31919 ft | 496 kts | 65° |
| 2026-04-30 09:00 | 39.88376 | 113.55379 | 31916 ft | 495 kts | 65° |
| 2026-04-30 09:00 | 39.90752 | 113.63817 | 31922 ft | 495 kts | 65° |
| 2026-04-30 09:01 | 39.93111 | 113.72219 | 31918 ft | 494 kts | 65° |
| 2026-04-30 09:01 | 39.95464 | 113.80628 | 31911 ft | 494 kts | 65° |
| 2026-04-30 09:02 | 39.98589 | 113.91836 | 31906 ft | 493 kts | 65° |
| 2026-04-30 09:02 | 40.01296 | 114.01587 | 31905 ft | 492 kts | 65° |
| 2026-04-30 09:03 | 40.03461 | 114.09411 | 31906 ft | 491 kts | 65° |
| 2026-04-30 09:03 | 40.05782 | 114.17782 | 31886 ft | 490 kts | 65° |
| 2026-04-30 09:04 | 40.06971 | 114.21981 | 31384 ft | 493 kts | 65° |
| 2026-04-30 09:04 | 40.08165 | 114.26162 | 30861 ft | 489 kts | 65° |
| 2026-04-30 09:04 | 40.09326 | 114.30238 | 30339 ft | 471 kts | 65° |
| 2026-04-30 09:04 | 40.10473 | 114.34281 | 29855 ft | 466 kts | 65° |
| 2026-04-30 09:05 | 40.11587 | 114.38206 | 29292 ft | 463 kts | 65° |
| 2026-04-30 09:05 | 40.12702 | 114.42143 | 28759 ft | 458 kts | 65° |
| 2026-04-30 09:05 | 40.13805 | 114.46049 | 28257 ft | 453 kts | 66° |
| 2026-04-30 09:05 | 40.14882 | 114.49869 | 27763 ft | 449 kts | 66° |
| 2026-04-30 09:06 | 40.15957 | 114.53691 | 27243 ft | 445 kts | 66° |
| 2026-04-30 09:06 | 40.17020 | 114.57477 | 26769 ft | 442 kts | 66° |
| 2026-04-30 09:06 | 40.18073 | 114.61234 | 26277 ft | 438 kts | 66° |
| 2026-04-30 09:06 | 40.19114 | 114.64954 | 25797 ft | 435 kts | 66° |
| 2026-04-30 09:07 | 40.21311 | 114.72821 | 24785 ft | 428 kts | 66° |
| 2026-04-30 09:07 | 40.21992 | 114.75263 | 24467 ft | 426 kts | 67° |
| 2026-04-30 09:07 | 40.23335 | 114.80085 | 23833 ft | 424 kts | 67° |
| 2026-04-30 09:08 | 40.24017 | 114.82539 | 23509 ft | 422 kts | 67° |
| 2026-04-30 09:08 | 40.25016 | 114.86138 | 22972 ft | 420 kts | 67° |
| 2026-04-30 09:08 | 40.26004 | 114.89700 | 22465 ft | 418 kts | 67° |
| 2026-04-30 09:08 | 40.26987 | 114.93256 | 21984 ft | 415 kts | 67° |
| 2026-04-30 09:09 | 40.27968 | 114.96807 | 21516 ft | 411 kts | 68° |
| 2026-04-30 09:09 | 40.28944 | 115.00343 | 21055 ft | 408 kts | 68° |
| 2026-04-30 09:09 | 40.29899 | 115.03806 | 20574 ft | 406 kts | 68° |
| 2026-04-30 09:09 | 40.30858 | 115.07287 | 20125 ft | 403 kts | 68° |
| 2026-04-30 09:10 | 40.31793 | 115.10690 | 19691 ft | 401 kts | 68° |
| 2026-04-30 09:10 | 40.32735 | 115.14123 | 19226 ft | 399 kts | 68° |
| 2026-04-30 09:10 | 40.33676 | 115.17554 | 18774 ft | 397 kts | 68° |
| 2026-04-30 09:10 | 40.34605 | 115.20946 | 18336 ft | 396 kts | 68° |
| 2026-04-30 09:11 | 40.35531 | 115.24333 | 17824 ft | 394 kts | 68° |
| 2026-04-30 09:11 | 40.36455 | 115.27716 | 17339 ft | 393 kts | 68° |
| 2026-04-30 09:11 | 40.37371 | 115.31076 | 16857 ft | 391 kts | 68° |
| 2026-04-30 09:11 | 40.38284 | 115.34431 | 16394 ft | 389 kts | 68° |
| 2026-04-30 09:12 | 40.39188 | 115.37754 | 15932 ft | 387 kts | 68° |
| 2026-04-30 09:12 | 40.40088 | 115.41067 | 15493 ft | 384 kts | 68° |
| 2026-04-30 09:12 | 40.40978 | 115.44350 | 15044 ft | 383 kts | 68° |
| 2026-04-30 09:12 | 40.41869 | 115.47638 | 14596 ft | 381 kts | 68° |
| 2026-04-30 09:13 | 40.42754 | 115.50906 | 14147 ft | 379 kts | 68° |
| 2026-04-30 09:13 | 40.43359 | 115.54230 | 13881 ft | 373 kts | 85° |
| 2026-04-30 09:13 | 40.43229 | 115.57609 | 13560 ft | 374 kts | 92° |
| 2026-04-30 09:13 | 40.43016 | 115.60992 | 13233 ft | 372 kts | 92° |
| 2026-04-30 09:14 | 40.42827 | 115.64364 | 12852 ft | 369 kts | 91° |
| 2026-04-30 09:14 | 40.42658 | 115.67710 | 12509 ft | 363 kts | 91° |
| 2026-04-30 09:14 | 40.42503 | 115.71004 | 12128 ft | 359 kts | 90° |
| 2026-04-30 09:14 | 40.42353 | 115.74252 | 11663 ft | 358 kts | 91° |
| 2026-04-30 09:15 | 40.42202 | 115.77520 | 11223 ft | 357 kts | 90° |
| 2026-04-30 09:15 | 40.42048 | 115.80760 | 10783 ft | 355 kts | 91° |
| 2026-04-30 09:15 | 40.41893 | 115.83981 | 10426 ft | 352 kts | 91° |
| 2026-04-30 09:15 | 40.41740 | 115.87141 | 10336 ft | 344 kts | 91° |
| 2026-04-30 09:16 | 40.41588 | 115.90280 | 10296 ft | 350 kts | 91° |
| 2026-04-30 09:16 | 40.41433 | 115.93493 | 10299 ft | 352 kts | 91° |
| 2026-04-30 09:16 | 40.41277 | 115.96668 | 10216 ft | 341 kts | 91° |
| 2026-04-30 09:16 | 40.41125 | 115.99715 | 10140 ft | 330 kts | 91° |
| 2026-04-30 09:17 | 40.40980 | 116.02652 | 10070 ft | 319 kts | 90° |
| 2026-04-30 09:17 | 40.40836 | 116.05540 | 9995 ft | 308 kts | 90° |
| 2026-04-30 09:17 | 40.40698 | 116.08298 | 9938 ft | 297 kts | 90° |
| 2026-04-30 09:17 | 40.40567 | 116.10960 | 9879 ft | 295 kts | 90° |
| 2026-04-30 09:18 | 40.40432 | 116.13665 | 9815 ft | 295 kts | 89° |
| 2026-04-30 09:18 | 40.40309 | 116.16352 | 9621 ft | 296 kts | 88° |
| 2026-04-30 09:18 | 40.40296 | 116.17248 | 9462 ft | 299 kts | 86° |